sensor_id;sensor_type;location;lat;lon;timestamp;P1;durP1;ratioP1;P2;durP2;ratioP2
5831;SDS011;50943;51.448;7.646;2024-02-15T00:00:56;6.40;;;3.77;;
5831;SDS011;50943;51.448;7.646;2024-02-15T00:03:24;5.40;;;3.63;;
5831;SDS011;50943;51.448;7.646;2024-02-15T00:05:51;7.40;;;4.00;;
5831;SDS011;50943;51.448;7.646;2024-02-15T00:08:19;7.50;;;4.10;;
5831;SDS011;50943;51.448;7.646;2024-02-15T00:10:46;8.47;;;4.20;;
5831;SDS011;50943;51.448;7.646;2024-02-15T00:13:12;6.50;;;3.17;;
5831;SDS011;50943;51.448;7.646;2024-02-15T00:15:39;7.57;;;4.00;;
5831;SDS011;50943;51.448;7.646;2024-02-15T00:18:06;6.30;;;3.73;;
5831;SDS011;50943;51.448;7.646;2024-02-15T00:20:33;5.80;;;3.80;;
5831;SDS011;50943;51.448;7.646;2024-02-15T00:23:00;6.53;;;4.40;;
5831;SDS011;50943;51.448;7.646;2024-02-15T00:25:27;5.87;;;4.10;;
5831;SDS011;50943;51.448;7.646;2024-02-15T00:27:55;5.93;;;4.40;;
5831;SDS011;50943;51.448;7.646;2024-02-15T00:30:22;5.80;;;4.23;;
5831;SDS011;50943;51.448;7.646;2024-02-15T00:32:48;6.13;;;4.20;;
5831;SDS011;50943;51.448;7.646;2024-02-15T00:35:16;8.97;;;4.40;;
5831;SDS011;50943;51.448;7.646;2024-02-15T00:37:43;5.60;;;4.50;;
5831;SDS011;50943;51.448;7.646;2024-02-15T00:40:10;6.77;;;4.47;;
5831;SDS011;50943;51.448;7.646;2024-02-15T00:42:38;9.30;;;4.60;;
5831;SDS011;50943;51.448;7.646;2024-02-15T00:45:05;6.10;;;4.70;;
5831;SDS011;50943;51.448;7.646;2024-02-15T00:47:34;7.53;;;4.80;;
5831;SDS011;50943;51.448;7.646;2024-02-15T00:50:00;5.83;;;4.67;;
5831;SDS011;50943;51.448;7.646;2024-02-15T00:52:28;10.00;;;4.97;;
5831;SDS011;50943;51.448;7.646;2024-02-15T00:54:55;7.33;;;4.77;;
5831;SDS011;50943;51.448;7.646;2024-02-15T00:57:22;7.23;;;4.90;;
5831;SDS011;50943;51.448;7.646;2024-02-15T00:59:50;8.83;;;5.30;;
5831;SDS011;50943;51.448;7.646;2024-02-15T01:02:17;6.80;;;5.17;;
5831;SDS011;50943;51.448;7.646;2024-02-15T01:04:44;8.27;;;5.33;;
5831;SDS011;50943;51.448;7.646;2024-02-15T01:07:11;6.93;;;5.00;;
5831;SDS011;50943;51.448;7.646;2024-02-15T01:09:38;9.90;;;4.73;;
5831;SDS011;50943;51.448;7.646;2024-02-15T01:12:05;6.73;;;4.83;;
5831;SDS011;50943;51.448;7.646;2024-02-15T01:14:32;7.33;;;4.60;;
5831;SDS011;50943;51.448;7.646;2024-02-15T01:17:01;10.03;;;5.30;;
5831;SDS011;50943;51.448;7.646;2024-02-15T01:19:30;7.10;;;4.50;;
5831;SDS011;50943;51.448;7.646;2024-02-15T01:21:56;7.47;;;4.30;;
5831;SDS011;50943;51.448;7.646;2024-02-15T01:24:24;6.07;;;4.20;;
5831;SDS011;50943;51.448;7.646;2024-02-15T01:26:51;7.00;;;4.30;;
5831;SDS011;50943;51.448;7.646;2024-02-15T01:29:18;9.00;;;4.60;;
5831;SDS011;50943;51.448;7.646;2024-02-15T01:31:45;8.10;;;4.23;;
5831;SDS011;50943;51.448;7.646;2024-02-15T01:34:13;7.17;;;4.73;;
5831;SDS011;50943;51.448;7.646;2024-02-15T01:36:40;6.30;;;5.10;;
5831;SDS011;50943;51.448;7.646;2024-02-15T01:39:06;6.73;;;5.13;;
5831;SDS011;50943;51.448;7.646;2024-02-15T01:41:33;9.60;;;5.33;;
5831;SDS011;50943;51.448;7.646;2024-02-15T01:44:00;8.47;;;4.80;;
5831;SDS011;50943;51.448;7.646;2024-02-15T01:46:26;8.47;;;4.77;;
5831;SDS011;50943;51.448;7.646;2024-02-15T01:48:54;9.30;;;5.30;;
5831;SDS011;50943;51.448;7.646;2024-02-15T01:51:23;8.70;;;5.33;;
5831;SDS011;50943;51.448;7.646;2024-02-15T01:53:50;7.13;;;5.30;;
5831;SDS011;50943;51.448;7.646;2024-02-15T01:56:19;8.60;;;5.50;;
5831;SDS011;50943;51.448;7.646;2024-02-15T01:58:48;8.63;;;5.80;;
5831;SDS011;50943;51.448;7.646;2024-02-15T02:01:15;9.80;;;5.60;;
5831;SDS011;50943;51.448;7.646;2024-02-15T02:03:44;14.43;;;5.73;;
5831;SDS011;50943;51.448;7.646;2024-02-15T02:06:11;13.43;;;5.80;;
5831;SDS011;50943;51.448;7.646;2024-02-15T02:08:39;9.10;;;6.07;;
5831;SDS011;50943;51.448;7.646;2024-02-15T02:11:06;10.23;;;6.07;;
5831;SDS011;50943;51.448;7.646;2024-02-15T02:13:31;11.87;;;6.17;;
5831;SDS011;50943;51.448;7.646;2024-02-15T02:15:58;10.13;;;6.40;;
5831;SDS011;50943;51.448;7.646;2024-02-15T02:18:25;12.83;;;6.07;;
5831;SDS011;50943;51.448;7.646;2024-02-15T02:20:51;9.27;;;5.67;;
5831;SDS011;50943;51.448;7.646;2024-02-15T02:23:19;10.70;;;6.20;;
5831;SDS011;50943;51.448;7.646;2024-02-15T02:25:49;10.80;;;5.80;;
5831;SDS011;50943;51.448;7.646;2024-02-15T02:28:16;18.50;;;6.40;;
5831;SDS011;50943;51.448;7.646;2024-02-15T02:30:42;10.93;;;6.13;;
5831;SDS011;50943;51.448;7.646;2024-02-15T02:33:10;12.60;;;6.30;;
5831;SDS011;50943;51.448;7.646;2024-02-15T02:35:43;9.50;;;6.97;;
5831;SDS011;50943;51.448;7.646;2024-02-15T02:38:11;18.03;;;7.67;;
5831;SDS011;50943;51.448;7.646;2024-02-15T02:40:39;13.60;;;8.20;;
5831;SDS011;50943;51.448;7.646;2024-02-15T02:43:07;17.10;;;7.80;;
5831;SDS011;50943;51.448;7.646;2024-02-15T02:45:34;18.17;;;9.27;;
5831;SDS011;50943;51.448;7.646;2024-02-15T02:48:01;18.83;;;9.33;;
5831;SDS011;50943;51.448;7.646;2024-02-15T02:50:28;20.83;;;8.73;;
5831;SDS011;50943;51.448;7.646;2024-02-15T02:52:54;17.30;;;9.37;;
5831;SDS011;50943;51.448;7.646;2024-02-15T02:55:22;20.23;;;9.00;;
5831;SDS011;50943;51.448;7.646;2024-02-15T02:57:48;22.00;;;9.20;;
5831;SDS011;50943;51.448;7.646;2024-02-15T03:00:17;21.07;;;10.00;;
5831;SDS011;50943;51.448;7.646;2024-02-15T03:02:45;15.33;;;9.50;;
5831;SDS011;50943;51.448;7.646;2024-02-15T03:05:12;17.30;;;10.27;;
5831;SDS011;50943;51.448;7.646;2024-02-15T03:07:39;25.83;;;10.17;;
5831;SDS011;50943;51.448;7.646;2024-02-15T03:10:07;16.10;;;9.77;;
5831;SDS011;50943;51.448;7.646;2024-02-15T03:12:34;19.10;;;9.70;;
5831;SDS011;50943;51.448;7.646;2024-02-15T03:15:01;26.57;;;10.97;;
5831;SDS011;50943;51.448;7.646;2024-02-15T03:17:30;22.10;;;9.47;;
5831;SDS011;50943;51.448;7.646;2024-02-15T03:19:57;18.93;;;9.43;;
5831;SDS011;50943;51.448;7.646;2024-02-15T03:22:24;24.50;;;8.90;;
5831;SDS011;50943;51.448;7.646;2024-02-15T03:24:51;19.57;;;9.30;;
5831;SDS011;50943;51.448;7.646;2024-02-15T03:27:19;21.03;;;8.97;;
5831;SDS011;50943;51.448;7.646;2024-02-15T03:29:48;18.70;;;9.20;;
5831;SDS011;50943;51.448;7.646;2024-02-15T03:32:17;17.53;;;8.97;;
5831;SDS011;50943;51.448;7.646;2024-02-15T03:34:45;20.33;;;9.33;;
5831;SDS011;50943;51.448;7.646;2024-02-15T03:37:12;15.93;;;8.47;;
5831;SDS011;50943;51.448;7.646;2024-02-15T03:39:38;20.07;;;10.17;;
5831;SDS011;50943;51.448;7.646;2024-02-15T03:42:05;27.10;;;11.03;;
5831;SDS011;50943;51.448;7.646;2024-02-15T03:44:32;25.53;;;11.60;;
5831;SDS011;50943;51.448;7.646;2024-02-15T03:46:58;25.30;;;11.17;;
5831;SDS011;50943;51.448;7.646;2024-02-15T03:49:25;20.90;;;12.83;;
5831;SDS011;50943;51.448;7.646;2024-02-15T03:51:53;25.63;;;11.77;;
5831;SDS011;50943;51.448;7.646;2024-02-15T03:54:20;23.43;;;11.57;;
5831;SDS011;50943;51.448;7.646;2024-02-15T03:56:47;23.53;;;11.93;;
5831;SDS011;50943;51.448;7.646;2024-02-15T03:59:16;24.33;;;11.70;;
5831;SDS011;50943;51.448;7.646;2024-02-15T04:01:44;19.57;;;10.50;;
5831;SDS011;50943;51.448;7.646;2024-02-15T04:04:12;23.73;;;13.13;;
5831;SDS011;50943;51.448;7.646;2024-02-15T04:06:39;25.57;;;11.40;;
5831;SDS011;50943;51.448;7.646;2024-02-15T04:09:08;21.00;;;11.67;;
5831;SDS011;50943;51.448;7.646;2024-02-15T04:11:35;24.83;;;12.03;;
5831;SDS011;50943;51.448;7.646;2024-02-15T04:14:02;21.13;;;10.97;;
5831;SDS011;50943;51.448;7.646;2024-02-15T04:16:29;24.80;;;10.60;;
5831;SDS011;50943;51.448;7.646;2024-02-15T04:18:57;25.80;;;9.97;;
5831;SDS011;50943;51.448;7.646;2024-02-15T04:21:23;18.47;;;10.00;;
5831;SDS011;50943;51.448;7.646;2024-02-15T04:23:52;14.73;;;8.73;;
5831;SDS011;50943;51.448;7.646;2024-02-15T04:26:20;16.03;;;9.00;;
5831;SDS011;50943;51.448;7.646;2024-02-15T04:28:50;15.43;;;9.30;;
5831;SDS011;50943;51.448;7.646;2024-02-15T04:31:17;24.80;;;8.40;;
5831;SDS011;50943;51.448;7.646;2024-02-15T04:33:45;20.13;;;7.93;;
5831;SDS011;50943;51.448;7.646;2024-02-15T04:36:14;16.33;;;7.50;;
5831;SDS011;50943;51.448;7.646;2024-02-15T04:38:48;16.27;;;7.00;;
5831;SDS011;50943;51.448;7.646;2024-02-15T04:41:15;12.10;;;6.80;;
5831;SDS011;50943;51.448;7.646;2024-02-15T04:43:45;11.43;;;6.50;;
5831;SDS011;50943;51.448;7.646;2024-02-15T04:46:12;15.17;;;6.37;;
5831;SDS011;50943;51.448;7.646;2024-02-15T04:48:39;11.43;;;6.40;;
5831;SDS011;50943;51.448;7.646;2024-02-15T04:51:06;10.57;;;5.50;;
5831;SDS011;50943;51.448;7.646;2024-02-15T04:53:33;14.30;;;5.67;;
5831;SDS011;50943;51.448;7.646;2024-02-15T04:56:01;9.30;;;5.47;;
5831;SDS011;50943;51.448;7.646;2024-02-15T04:58:36;9.00;;;4.30;;
5831;SDS011;50943;51.448;7.646;2024-02-15T05:01:11;16.43;;;5.40;;
5831;SDS011;50943;51.448;7.646;2024-02-15T05:03:38;11.23;;;4.20;;
5831;SDS011;50943;51.448;7.646;2024-02-15T05:06:05;11.43;;;4.47;;
5831;SDS011;50943;51.448;7.646;2024-02-15T05:08:33;7.63;;;4.07;;
5831;SDS011;50943;51.448;7.646;2024-02-15T05:11:03;8.57;;;3.43;;
5831;SDS011;50943;51.448;7.646;2024-02-15T05:13:31;9.23;;;3.50;;
5831;SDS011;50943;51.448;7.646;2024-02-15T05:15:58;9.23;;;3.40;;
5831;SDS011;50943;51.448;7.646;2024-02-15T05:18:26;9.30;;;3.20;;
5831;SDS011;50943;51.448;7.646;2024-02-15T05:20:54;10.90;;;3.50;;
5831;SDS011;50943;51.448;7.646;2024-02-15T05:23:21;7.97;;;3.00;;
5831;SDS011;50943;51.448;7.646;2024-02-15T05:25:47;5.70;;;3.30;;
5831;SDS011;50943;51.448;7.646;2024-02-15T05:28:14;4.77;;;2.70;;
5831;SDS011;50943;51.448;7.646;2024-02-15T05:30:43;8.97;;;2.67;;
5831;SDS011;50943;51.448;7.646;2024-02-15T05:33:09;6.27;;;3.50;;
5831;SDS011;50943;51.448;7.646;2024-02-15T05:35:37;4.43;;;2.70;;
5831;SDS011;50943;51.448;7.646;2024-02-15T05:38:06;7.20;;;3.10;;
5831;SDS011;50943;51.448;7.646;2024-02-15T05:40:33;6.10;;;3.00;;
5831;SDS011;50943;51.448;7.646;2024-02-15T05:42:59;7.93;;;2.57;;
5831;SDS011;50943;51.448;7.646;2024-02-15T05:45:30;8.83;;;3.60;;
5831;SDS011;50943;51.448;7.646;2024-02-15T05:48:03;8.40;;;3.40;;
5831;SDS011;50943;51.448;7.646;2024-02-15T05:50:32;5.03;;;2.53;;
5831;SDS011;50943;51.448;7.646;2024-02-15T05:53:00;5.20;;;2.70;;
5831;SDS011;50943;51.448;7.646;2024-02-15T05:55:27;8.80;;;2.40;;
5831;SDS011;50943;51.448;7.646;2024-02-15T05:57:56;11.93;;;2.73;;
5831;SDS011;50943;51.448;7.646;2024-02-15T06:00:22;8.50;;;2.07;;
5831;SDS011;50943;51.448;7.646;2024-02-15T06:02:49;7.10;;;2.37;;
5831;SDS011;50943;51.448;7.646;2024-02-15T06:05:17;5.80;;;2.37;;
5831;SDS011;50943;51.448;7.646;2024-02-15T06:07:44;4.67;;;2.27;;
5831;SDS011;50943;51.448;7.646;2024-02-15T06:10:13;5.17;;;2.30;;
5831;SDS011;50943;51.448;7.646;2024-02-15T06:12:40;9.57;;;2.53;;
5831;SDS011;50943;51.448;7.646;2024-02-15T06:15:08;6.70;;;3.10;;
5831;SDS011;50943;51.448;7.646;2024-02-15T06:17:40;8.60;;;2.97;;
5831;SDS011;50943;51.448;7.646;2024-02-15T06:20:10;14.47;;;2.70;;
5831;SDS011;50943;51.448;7.646;2024-02-15T06:22:39;8.27;;;2.70;;
5831;SDS011;50943;51.448;7.646;2024-02-15T06:25:06;6.57;;;3.17;;
5831;SDS011;50943;51.448;7.646;2024-02-15T06:27:34;7.53;;;2.40;;
5831;SDS011;50943;51.448;7.646;2024-02-15T06:30:05;6.80;;;2.70;;
5831;SDS011;50943;51.448;7.646;2024-02-15T06:32:50;8.00;;;2.63;;
5831;SDS011;50943;51.448;7.646;2024-02-15T06:35:43;8.87;;;2.93;;
5831;SDS011;50943;51.448;7.646;2024-02-15T06:38:27;11.20;;;2.63;;
5831;SDS011;50943;51.448;7.646;2024-02-15T06:41:14;13.17;;;2.70;;
5831;SDS011;50943;51.448;7.646;2024-02-15T06:43:42;7.43;;;2.93;;
5831;SDS011;50943;51.448;7.646;2024-02-15T06:46:09;7.87;;;2.87;;
5831;SDS011;50943;51.448;7.646;2024-02-15T06:48:36;6.33;;;3.03;;
5831;SDS011;50943;51.448;7.646;2024-02-15T06:51:03;7.00;;;2.57;;
5831;SDS011;50943;51.448;7.646;2024-02-15T06:53:30;5.30;;;2.67;;
5831;SDS011;50943;51.448;7.646;2024-02-15T06:55:57;6.47;;;2.40;;
5831;SDS011;50943;51.448;7.646;2024-02-15T06:58:24;7.97;;;3.20;;
5831;SDS011;50943;51.448;7.646;2024-02-15T07:00:53;6.90;;;2.67;;
5831;SDS011;50943;51.448;7.646;2024-02-15T07:03:20;9.43;;;2.60;;
5831;SDS011;50943;51.448;7.646;2024-02-15T07:05:48;12.10;;;3.50;;
5831;SDS011;50943;51.448;7.646;2024-02-15T07:08:15;7.70;;;3.00;;
5831;SDS011;50943;51.448;7.646;2024-02-15T07:10:42;7.30;;;3.27;;
5831;SDS011;50943;51.448;7.646;2024-02-15T07:13:08;7.70;;;2.77;;
5831;SDS011;50943;51.448;7.646;2024-02-15T07:15:35;6.20;;;2.60;;
5831;SDS011;50943;51.448;7.646;2024-02-15T07:18:05;6.50;;;2.63;;
5831;SDS011;50943;51.448;7.646;2024-02-15T07:20:32;8.07;;;2.60;;
5831;SDS011;50943;51.448;7.646;2024-02-15T07:22:58;8.30;;;2.50;;
5831;SDS011;50943;51.448;7.646;2024-02-15T07:25:25;9.30;;;3.20;;
5831;SDS011;50943;51.448;7.646;2024-02-15T07:27:52;10.03;;;2.70;;
5831;SDS011;50943;51.448;7.646;2024-02-15T07:30:19;5.30;;;2.43;;
5831;SDS011;50943;51.448;7.646;2024-02-15T07:32:46;11.60;;;2.77;;
5831;SDS011;50943;51.448;7.646;2024-02-15T07:35:14;10.60;;;2.67;;
5831;SDS011;50943;51.448;7.646;2024-02-15T07:37:50;8.13;;;2.77;;
5831;SDS011;50943;51.448;7.646;2024-02-15T07:40:17;4.83;;;2.53;;
5831;SDS011;50943;51.448;7.646;2024-02-15T07:42:44;6.90;;;3.10;;
5831;SDS011;50943;51.448;7.646;2024-02-15T07:45:11;10.67;;;3.00;;
5831;SDS011;50943;51.448;7.646;2024-02-15T07:47:38;8.70;;;3.00;;
5831;SDS011;50943;51.448;7.646;2024-02-15T07:50:05;5.10;;;2.70;;
5831;SDS011;50943;51.448;7.646;2024-02-15T07:52:36;8.57;;;3.20;;
5831;SDS011;50943;51.448;7.646;2024-02-15T07:55:03;10.47;;;2.97;;
5831;SDS011;50943;51.448;7.646;2024-02-15T07:57:34;9.00;;;3.67;;
5831;SDS011;50943;51.448;7.646;2024-02-15T08:00:00;7.40;;;3.03;;
5831;SDS011;50943;51.448;7.646;2024-02-15T08:02:28;8.13;;;2.57;;
5831;SDS011;50943;51.448;7.646;2024-02-15T08:04:54;10.70;;;3.03;;
5831;SDS011;50943;51.448;7.646;2024-02-15T08:07:21;6.00;;;2.30;;
5831;SDS011;50943;51.448;7.646;2024-02-15T08:09:48;6.87;;;2.93;;
5831;SDS011;50943;51.448;7.646;2024-02-15T08:12:15;7.17;;;2.60;;
5831;SDS011;50943;51.448;7.646;2024-02-15T08:14:44;12.73;;;2.93;;
5831;SDS011;50943;51.448;7.646;2024-02-15T08:17:10;8.50;;;2.77;;
5831;SDS011;50943;51.448;7.646;2024-02-15T08:19:39;7.20;;;2.63;;
5831;SDS011;50943;51.448;7.646;2024-02-15T08:22:06;9.20;;;2.40;;
5831;SDS011;50943;51.448;7.646;2024-02-15T08:24:34;5.80;;;1.87;;
5831;SDS011;50943;51.448;7.646;2024-02-15T08:27:02;7.60;;;2.53;;
5831;SDS011;50943;51.448;7.646;2024-02-15T08:29:30;8.03;;;2.40;;
5831;SDS011;50943;51.448;7.646;2024-02-15T08:32:00;5.80;;;2.10;;
5831;SDS011;50943;51.448;7.646;2024-02-15T08:34:28;5.53;;;2.20;;
5831;SDS011;50943;51.448;7.646;2024-02-15T08:36:55;7.87;;;2.60;;
5831;SDS011;50943;51.448;7.646;2024-02-15T08:39:23;5.53;;;2.30;;
5831;SDS011;50943;51.448;7.646;2024-02-15T08:41:50;9.40;;;2.53;;
5831;SDS011;50943;51.448;7.646;2024-02-15T08:44:19;6.80;;;2.33;;
5831;SDS011;50943;51.448;7.646;2024-02-15T08:46:46;13.37;;;2.50;;
5831;SDS011;50943;51.448;7.646;2024-02-15T08:49:13;5.10;;;2.30;;
5831;SDS011;50943;51.448;7.646;2024-02-15T08:51:40;6.77;;;2.50;;
5831;SDS011;50943;51.448;7.646;2024-02-15T08:54:06;3.50;;;2.27;;
5831;SDS011;50943;51.448;7.646;2024-02-15T08:56:35;5.07;;;2.60;;
5831;SDS011;50943;51.448;7.646;2024-02-15T08:59:02;7.93;;;2.43;;
5831;SDS011;50943;51.448;7.646;2024-02-15T09:01:29;6.53;;;2.23;;
5831;SDS011;50943;51.448;7.646;2024-02-15T09:03:57;6.27;;;2.40;;
5831;SDS011;50943;51.448;7.646;2024-02-15T09:06:23;7.00;;;2.27;;
5831;SDS011;50943;51.448;7.646;2024-02-15T09:08:51;5.97;;;2.20;;
5831;SDS011;50943;51.448;7.646;2024-02-15T09:11:17;11.50;;;2.47;;
5831;SDS011;50943;51.448;7.646;2024-02-15T09:13:44;4.17;;;1.80;;
5831;SDS011;50943;51.448;7.646;2024-02-15T09:16:10;9.23;;;2.60;;
5831;SDS011;50943;51.448;7.646;2024-02-15T09:18:38;6.60;;;1.97;;
5831;SDS011;50943;51.448;7.646;2024-02-15T09:21:10;6.10;;;2.20;;
5831;SDS011;50943;51.448;7.646;2024-02-15T09:23:36;10.00;;;2.10;;
5831;SDS011;50943;51.448;7.646;2024-02-15T09:26:04;5.57;;;1.80;;
5831;SDS011;50943;51.448;7.646;2024-02-15T09:28:30;4.40;;;1.83;;
5831;SDS011;50943;51.448;7.646;2024-02-15T09:30:57;8.43;;;2.00;;
5831;SDS011;50943;51.448;7.646;2024-02-15T09:33:26;8.90;;;2.30;;
5831;SDS011;50943;51.448;7.646;2024-02-15T09:35:54;11.60;;;2.40;;
5831;SDS011;50943;51.448;7.646;2024-02-15T09:38:21;5.67;;;1.87;;
5831;SDS011;50943;51.448;7.646;2024-02-15T09:40:49;4.17;;;1.83;;
5831;SDS011;50943;51.448;7.646;2024-02-15T09:43:16;7.97;;;1.80;;
5831;SDS011;50943;51.448;7.646;2024-02-15T09:45:43;7.27;;;2.20;;
5831;SDS011;50943;51.448;7.646;2024-02-15T09:48:10;4.70;;;1.97;;
5831;SDS011;50943;51.448;7.646;2024-02-15T09:50:38;4.87;;;1.93;;
5831;SDS011;50943;51.448;7.646;2024-02-15T09:53:08;3.53;;;1.93;;
5831;SDS011;50943;51.448;7.646;2024-02-15T09:55:35;4.80;;;1.97;;
5831;SDS011;50943;51.448;7.646;2024-02-15T09:58:02;6.70;;;2.10;;
5831;SDS011;50943;51.448;7.646;2024-02-15T10:00:31;8.13;;;2.30;;
5831;SDS011;50943;51.448;7.646;2024-02-15T10:03:00;6.80;;;2.10;;
5831;SDS011;50943;51.448;7.646;2024-02-15T10:05:27;4.40;;;1.80;;
5831;SDS011;50943;51.448;7.646;2024-02-15T10:07:54;7.47;;;2.20;;
5831;SDS011;50943;51.448;7.646;2024-02-15T10:10:22;5.80;;;2.03;;
5831;SDS011;50943;51.448;7.646;2024-02-15T10:12:50;12.27;;;2.30;;
5831;SDS011;50943;51.448;7.646;2024-02-15T10:15:29;5.20;;;2.00;;
5831;SDS011;50943;51.448;7.646;2024-02-15T10:17:56;5.63;;;2.70;;
5831;SDS011;50943;51.448;7.646;2024-02-15T10:20:24;7.73;;;1.90;;
5831;SDS011;50943;51.448;7.646;2024-02-15T10:22:51;4.23;;;1.50;;
5831;SDS011;50943;51.448;7.646;2024-02-15T10:25:20;3.50;;;1.93;;
5831;SDS011;50943;51.448;7.646;2024-02-15T10:27:48;6.13;;;1.83;;
5831;SDS011;50943;51.448;7.646;2024-02-15T10:30:16;9.07;;;2.10;;
5831;SDS011;50943;51.448;7.646;2024-02-15T10:32:43;3.50;;;1.40;;
5831;SDS011;50943;51.448;7.646;2024-02-15T10:35:10;4.77;;;1.60;;
5831;SDS011;50943;51.448;7.646;2024-02-15T10:37:45;5.37;;;2.07;;
5831;SDS011;50943;51.448;7.646;2024-02-15T10:40:14;7.23;;;1.80;;
5831;SDS011;50943;51.448;7.646;2024-02-15T10:42:45;9.77;;;2.43;;
5831;SDS011;50943;51.448;7.646;2024-02-15T10:45:12;11.00;;;2.23;;
5831;SDS011;50943;51.448;7.646;2024-02-15T10:47:43;4.67;;;2.40;;
5831;SDS011;50943;51.448;7.646;2024-02-15T10:50:10;4.70;;;1.60;;
5831;SDS011;50943;51.448;7.646;2024-02-15T10:52:38;6.67;;;1.90;;
5831;SDS011;50943;51.448;7.646;2024-02-15T10:55:10;3.37;;;1.53;;
5831;SDS011;50943;51.448;7.646;2024-02-15T10:57:39;5.27;;;1.57;;
5831;SDS011;50943;51.448;7.646;2024-02-15T11:00:10;14.40;;;2.13;;
5831;SDS011;50943;51.448;7.646;2024-02-15T11:02:46;4.70;;;1.80;;
5831;SDS011;50943;51.448;7.646;2024-02-15T11:05:16;4.37;;;2.00;;
5831;SDS011;50943;51.448;7.646;2024-02-15T11:07:48;4.13;;;1.67;;
5831;SDS011;50943;51.448;7.646;2024-02-15T11:10:14;3.80;;;1.67;;
5831;SDS011;50943;51.448;7.646;2024-02-15T11:12:42;5.60;;;1.70;;
5831;SDS011;50943;51.448;7.646;2024-02-15T11:15:10;3.50;;;1.60;;
5831;SDS011;50943;51.448;7.646;2024-02-15T11:17:45;5.67;;;1.90;;
5831;SDS011;50943;51.448;7.646;2024-02-15T11:23:23;3.40;;;1.30;;
5831;SDS011;50943;51.448;7.646;2024-02-15T11:25:51;10.10;;;1.50;;
5831;SDS011;50943;51.448;7.646;2024-02-15T11:28:35;4.20;;;1.57;;
5831;SDS011;50943;51.448;7.646;2024-02-15T11:31:05;4.43;;;1.77;;
5831;SDS011;50943;51.448;7.646;2024-02-15T11:33:34;6.13;;;2.20;;
5831;SDS011;50943;51.448;7.646;2024-02-15T11:36:04;5.73;;;2.07;;
5831;SDS011;50943;51.448;7.646;2024-02-15T11:38:31;4.30;;;1.80;;
5831;SDS011;50943;51.448;7.646;2024-02-15T11:41:04;3.67;;;1.43;;
5831;SDS011;50943;51.448;7.646;2024-02-15T11:43:45;6.57;;;1.90;;
5831;SDS011;50943;51.448;7.646;2024-02-15T11:46:24;7.83;;;1.37;;
5831;SDS011;50943;51.448;7.646;2024-02-15T11:48:55;7.63;;;1.90;;
5831;SDS011;50943;51.448;7.646;2024-02-15T11:51:24;6.80;;;1.60;;
5831;SDS011;50943;51.448;7.646;2024-02-15T11:53:58;5.83;;;2.27;;
5831;SDS011;50943;51.448;7.646;2024-02-15T11:56:31;3.30;;;1.50;;
5831;SDS011;50943;51.448;7.646;2024-02-15T11:59:03;6.87;;;1.30;;
5831;SDS011;50943;51.448;7.646;2024-02-15T12:01:32;8.07;;;1.50;;
5831;SDS011;50943;51.448;7.646;2024-02-15T12:04:18;4.40;;;1.47;;
5831;SDS011;50943;51.448;7.646;2024-02-15T12:07:02;4.00;;;1.67;;
5831;SDS011;50943;51.448;7.646;2024-02-15T12:09:46;3.87;;;1.30;;
5831;SDS011;50943;51.448;7.646;2024-02-15T12:12:30;5.03;;;1.50;;
5831;SDS011;50943;51.448;7.646;2024-02-15T12:15:14;5.50;;;1.93;;
5831;SDS011;50943;51.448;7.646;2024-02-15T12:20:59;5.07;;;1.63;;
5831;SDS011;50943;51.448;7.646;2024-02-15T12:23:27;5.07;;;2.00;;
5831;SDS011;50943;51.448;7.646;2024-02-15T12:25:55;4.63;;;1.90;;
5831;SDS011;50943;51.448;7.646;2024-02-15T12:28:23;3.87;;;1.53;;
5831;SDS011;50943;51.448;7.646;2024-02-15T12:30:53;6.53;;;1.40;;
5831;SDS011;50943;51.448;7.646;2024-02-15T12:33:22;3.90;;;1.40;;
5831;SDS011;50943;51.448;7.646;2024-02-15T12:35:49;3.00;;;1.30;;
5831;SDS011;50943;51.448;7.646;2024-02-15T12:38:38;4.83;;;1.30;;
5831;SDS011;50943;51.448;7.646;2024-02-15T12:41:16;6.20;;;1.73;;
5831;SDS011;50943;51.448;7.646;2024-02-15T12:43:44;8.43;;;1.70;;
5831;SDS011;50943;51.448;7.646;2024-02-15T12:46:11;4.27;;;1.50;;
5831;SDS011;50943;51.448;7.646;2024-02-15T12:48:39;6.40;;;1.70;;
5831;SDS011;50943;51.448;7.646;2024-02-15T12:51:12;7.30;;;1.53;;
5831;SDS011;50943;51.448;7.646;2024-02-15T12:53:39;6.27;;;1.60;;
5831;SDS011;50943;51.448;7.646;2024-02-15T12:56:06;3.47;;;1.27;;
5831;SDS011;50943;51.448;7.646;2024-02-15T12:58:34;4.73;;;1.53;;
5831;SDS011;50943;51.448;7.646;2024-02-15T13:01:01;2.50;;;1.30;;
5831;SDS011;50943;51.448;7.646;2024-02-15T13:03:29;3.50;;;1.73;;
5831;SDS011;50943;51.448;7.646;2024-02-15T13:05:57;7.37;;;1.60;;
5831;SDS011;50943;51.448;7.646;2024-02-15T13:08:24;2.20;;;1.13;;
5831;SDS011;50943;51.448;7.646;2024-02-15T13:10:50;2.53;;;1.40;;
5831;SDS011;50943;51.448;7.646;2024-02-15T13:13:17;4.80;;;2.07;;
5831;SDS011;50943;51.448;7.646;2024-02-15T13:15:45;4.07;;;1.27;;
5831;SDS011;50943;51.448;7.646;2024-02-15T13:18:12;3.13;;;1.40;;
5831;SDS011;50943;51.448;7.646;2024-02-15T13:20:39;4.40;;;1.90;;
5831;SDS011;50943;51.448;7.646;2024-02-15T13:23:07;6.33;;;1.43;;
5831;SDS011;50943;51.448;7.646;2024-02-15T13:25:34;2.10;;;1.30;;
5831;SDS011;50943;51.448;7.646;2024-02-15T13:28:02;3.40;;;1.57;;
5831;SDS011;50943;51.448;7.646;2024-02-15T13:30:29;6.53;;;1.60;;
5831;SDS011;50943;51.448;7.646;2024-02-15T13:32:56;3.53;;;1.50;;
5831;SDS011;50943;51.448;7.646;2024-02-15T13:35:23;9.43;;;1.60;;
5831;SDS011;50943;51.448;7.646;2024-02-15T13:37:49;3.03;;;1.13;;
5831;SDS011;50943;51.448;7.646;2024-02-15T13:40:20;9.30;;;1.50;;
5831;SDS011;50943;51.448;7.646;2024-02-15T13:42:49;4.20;;;1.23;;
5831;SDS011;50943;51.448;7.646;2024-02-15T13:45:18;5.97;;;2.47;;
5831;SDS011;50943;51.448;7.646;2024-02-15T13:47:45;2.57;;;1.33;;
5831;SDS011;50943;51.448;7.646;2024-02-15T13:50:15;1.53;;;1.13;;
5831;SDS011;50943;51.448;7.646;2024-02-15T13:52:42;3.80;;;1.30;;
5831;SDS011;50943;51.448;7.646;2024-02-15T13:55:10;5.00;;;1.47;;
5831;SDS011;50943;51.448;7.646;2024-02-15T13:57:39;8.23;;;2.70;;
5831;SDS011;50943;51.448;7.646;2024-02-15T14:00:07;4.00;;;1.27;;
5831;SDS011;50943;51.448;7.646;2024-02-15T14:02:38;4.33;;;1.17;;
5831;SDS011;50943;51.448;7.646;2024-02-15T14:05:06;2.70;;;1.13;;
5831;SDS011;50943;51.448;7.646;2024-02-15T14:07:36;12.20;;;1.70;;
5831;SDS011;50943;51.448;7.646;2024-02-15T14:10:04;5.03;;;1.80;;
5831;SDS011;50943;51.448;7.646;2024-02-15T14:12:31;5.03;;;1.37;;
5831;SDS011;50943;51.448;7.646;2024-02-15T14:14:59;2.77;;;1.30;;
5831;SDS011;50943;51.448;7.646;2024-02-15T14:17:26;4.33;;;1.20;;
5831;SDS011;50943;51.448;7.646;2024-02-15T14:19:53;3.27;;;1.27;;
5831;SDS011;50943;51.448;7.646;2024-02-15T14:22:19;3.13;;;1.50;;
5831;SDS011;50943;51.448;7.646;2024-02-15T14:24:48;6.23;;;1.50;;
5831;SDS011;50943;51.448;7.646;2024-02-15T14:27:15;4.60;;;1.33;;
5831;SDS011;50943;51.448;7.646;2024-02-15T14:29:42;2.40;;;1.27;;
5831;SDS011;50943;51.448;7.646;2024-02-15T14:32:32;6.30;;;1.57;;
5831;SDS011;50943;51.448;7.646;2024-02-15T14:35:16;2.23;;;1.47;;
5831;SDS011;50943;51.448;7.646;2024-02-15T14:37:43;5.07;;;2.20;;
5831;SDS011;50943;51.448;7.646;2024-02-15T14:40:10;3.93;;;1.40;;
5831;SDS011;50943;51.448;7.646;2024-02-15T14:42:39;3.43;;;1.40;;
5831;SDS011;50943;51.448;7.646;2024-02-15T14:45:07;2.87;;;1.40;;
5831;SDS011;50943;51.448;7.646;2024-02-15T14:47:37;5.53;;;2.33;;
5831;SDS011;50943;51.448;7.646;2024-02-15T14:50:04;7.23;;;1.73;;
5831;SDS011;50943;51.448;7.646;2024-02-15T14:52:33;3.43;;;1.47;;
5831;SDS011;50943;51.448;7.646;2024-02-15T14:55:00;2.93;;;1.20;;
5831;SDS011;50943;51.448;7.646;2024-02-15T14:57:30;3.67;;;1.80;;
5831;SDS011;50943;51.448;7.646;2024-02-15T14:59:56;5.23;;;1.67;;
5831;SDS011;50943;51.448;7.646;2024-02-15T15:02:23;4.17;;;2.03;;
5831;SDS011;50943;51.448;7.646;2024-02-15T15:04:51;6.27;;;2.13;;
5831;SDS011;50943;51.448;7.646;2024-02-15T15:07:44;2.93;;;1.30;;
5831;SDS011;50943;51.448;7.646;2024-02-15T15:10:28;4.90;;;1.57;;
5831;SDS011;50943;51.448;7.646;2024-02-15T15:13:12;1.93;;;1.30;;